createdAt,value
2022-11-01T00:04:00.741Z,7.90
2022-11-01T00:08:58.239Z,7.80
2022-11-01T00:13:56.065Z,7.80
2022-11-01T00:18:54.020Z,7.60
2022-11-01T00:23:51.655Z,7.70
2022-11-01T00:28:49.895Z,7.60
2022-11-01T00:33:47.980Z,7.50
2022-11-01T00:38:45.224Z,7.40
2022-11-01T00:43:42.441Z,7.40
2022-11-01T00:48:39.831Z,7.40
2022-11-01T00:53:37.047Z,7.50
2022-11-01T00:58:35.621Z,7.40
2022-11-01T01:03:32.936Z,7.30
2022-11-01T01:08:31.308Z,7.20
2022-11-01T01:13:28.427Z,7.20
2022-11-01T01:18:25.772Z,7.20
2022-11-01T01:23:22.909Z,7.10
2022-11-01T01:28:20.065Z,7.10
2022-11-01T01:33:17.717Z,7.00
2022-11-01T01:38:14.900Z,7.00
2022-11-01T01:43:13.074Z,7.00
2022-11-01T01:48:18.660Z,7.00
2022-11-01T01:53:53.200Z,7.10
2022-11-01T01:58:59.276Z,7.10
2022-11-01T02:03:56.825Z,7.00
2022-11-01T02:08:57.594Z,7.10
2022-11-01T02:13:55.729Z,6.90
2022-11-01T02:19:17.249Z,6.80
2022-11-01T02:24:20.636Z,6.60
2022-11-01T02:30:04.309Z,6.60
2022-11-01T02:35:13.427Z,6.70
2022-11-01T02:40:17.146Z,6.70
2022-11-01T02:45:38.424Z,6.60
2022-11-01T02:50:41.781Z,6.60
2022-11-01T02:55:39.333Z,6.60
2022-11-01T03:00:37.457Z,6.60
2022-11-01T03:05:41.715Z,6.60
2022-11-01T03:11:00.274Z,6.50
2022-11-01T03:16:35.855Z,6.40
2022-11-01T03:21:47.340Z,6.30
2022-11-01T03:26:49.850Z,6.30
2022-11-01T03:31:49.894Z,6.30
2022-11-01T03:36:54.220Z,6.20
2022-11-01T03:41:57.706Z,6.20
2022-11-01T03:47:04.030Z,6.10
2022-11-01T03:52:06.235Z,6.00
2022-11-01T03:57:03.580Z,6.10
2022-11-01T04:02:01.215Z,6.10
2022-11-01T04:06:58.525Z,6.10
2022-11-01T04:11:55.715Z,5.90
2022-11-01T04:17:11.557Z,5.90
2022-11-01T04:22:08.961Z,5.80
2022-11-01T04:27:06.488Z,5.90
2022-11-01T04:32:03.892Z,5.90
2022-11-01T04:37:12.463Z,5.80
2022-11-01T04:42:11.094Z,5.70
2022-11-01T04:47:09.479Z,5.60
2022-11-01T04:52:06.847Z,5.60
2022-11-01T04:57:06.910Z,5.60
2022-11-01T05:02:09.789Z,5.60
2022-11-01T05:07:17.084Z,5.50
2022-11-01T05:12:15.215Z,5.40
2022-11-01T05:17:18.360Z,5.40
2022-11-01T05:22:17.731Z,5.30
2022-11-01T05:27:16.155Z,5.40
2022-11-01T05:32:13.986Z,5.40
2022-11-01T05:37:11.514Z,5.40
2022-11-01T05:42:08.856Z,5.50
2022-11-01T05:47:06.524Z,5.50
2022-11-01T05:52:03.754Z,5.40
2022-11-01T05:57:01.295Z,5.50
2022-11-01T06:01:59.296Z,5.50
2022-11-01T06:06:56.599Z,5.40
2022-11-01T06:11:53.822Z,5.60
2022-11-01T06:16:51.097Z,5.80
2022-11-01T06:21:49.082Z,5.90
2022-11-01T06:26:46.588Z,6.00
2022-11-01T06:31:43.896Z,6.10
2022-11-01T06:36:42.278Z,6.20
2022-11-01T06:41:39.447Z,6.50
2022-11-01T06:46:36.746Z,6.90
2022-11-01T06:51:35.146Z,7.50
2022-11-01T06:56:32.453Z,7.70
2022-11-01T07:01:29.849Z,8.40
2022-11-01T07:06:31.111Z,8.80
2022-11-01T07:11:31.507Z,10.50
2022-11-01T07:16:29.896Z,12.20
2022-11-01T07:21:27.492Z,13.50
2022-11-01T07:26:24.757Z,15.10
2022-11-01T07:31:22.013Z,15.20
2022-11-01T07:36:19.197Z,15.30
2022-11-01T07:41:16.767Z,14.70
2022-11-01T07:46:14.158Z,14.00
2022-11-01T07:51:11.371Z,13.30
2022-11-01T07:56:08.732Z,13.50
2022-11-01T08:01:06.193Z,14.40
2022-11-01T08:06:03.816Z,16.00
2022-11-01T08:11:02.618Z,18.30
2022-11-01T08:16:02.759Z,18.80
2022-11-01T08:21:00.243Z,20.60
2022-11-01T08:25:58.874Z,20.40
2022-11-01T08:30:57.707Z,20.90
2022-11-01T08:35:55.074Z,21.50
2022-11-01T08:40:52.364Z,21.20
2022-11-01T08:45:49.655Z,21.30
2022-11-01T08:50:47.510Z,22.20
2022-11-01T08:55:44.926Z,22.30
2022-11-01T09:00:43.928Z,21.80
2022-11-01T09:05:41.455Z,21.10
2022-11-01T09:10:38.962Z,19.90
2022-11-01T09:15:36.401Z,19.60
2022-11-01T09:20:34.135Z,19.70
2022-11-01T09:25:33.462Z,19.90
2022-11-01T09:30:30.728Z,20.10
2022-11-01T09:35:30.036Z,19.50
2022-11-01T09:40:30.647Z,19.10
2022-11-01T09:45:32.778Z,18.90
2022-11-01T09:50:37.692Z,19.40
2022-11-01T09:55:50.287Z,19.40
2022-11-01T10:01:07.122Z,19.20
2022-11-01T10:06:31.737Z,19.10
2022-11-01T10:11:51.445Z,18.70
2022-11-01T10:17:12.677Z,18.90
2022-11-01T10:22:29.059Z,18.30
2022-11-01T10:27:47.334Z,17.50
2022-11-01T10:33:32.657Z,16.90
2022-11-01T10:44:15.455Z,17.30
2022-11-01T10:49:22.381Z,17.00
2022-11-01T10:54:26.709Z,16.90
2022-11-01T10:59:50.658Z,16.70
2022-11-01T11:04:50.163Z,16.80
2022-11-01T11:09:51.386Z,16.80
2022-11-01T11:14:53.472Z,16.90
2022-11-01T11:19:53.756Z,16.80
2022-11-01T11:24:53.016Z,17.00
2022-11-01T11:30:30.463Z,17.00
2022-11-01T11:35:30.562Z,17.00
2022-11-01T11:40:42.113Z,16.90
2022-11-01T11:45:40.171Z,16.90
2022-11-01T11:50:38.311Z,17.00
2022-11-01T11:55:46.903Z,16.90
2022-11-01T12:00:48.696Z,17.00
2022-11-01T12:05:58.320Z,17.30
2022-11-01T12:10:59.593Z,17.20
2022-11-01T12:16:21.553Z,17.10
2022-11-01T12:21:43.173Z,17.20
2022-11-01T12:26:41.554Z,17.40
2022-11-01T12:31:42.178Z,17.30
2022-11-01T12:36:48.907Z,17.50
2022-11-01T12:41:57.393Z,17.70
2022-11-01T12:47:14.008Z,17.70
2022-11-01T12:52:47.888Z,17.50
2022-11-01T12:57:45.502Z,17.20
2022-11-01T13:03:05.835Z,17.30
2022-11-01T13:08:24.879Z,17.40
2022-11-01T13:13:33.957Z,17.60
2022-11-01T13:18:44.632Z,17.60
2022-11-01T13:24:13.717Z,17.60
2022-11-01T13:29:34.549Z,17.90
2022-11-01T13:34:47.039Z,17.90
2022-11-01T13:39:54.442Z,17.60
2022-11-01T13:45:10.027Z,17.50
2022-11-01T13:50:16.964Z,17.60
2022-11-01T13:55:32.564Z,17.60
2022-11-01T14:00:43.675Z,17.70
2022-11-01T14:05:40.960Z,17.80
2022-11-01T14:10:39.696Z,17.60
2022-11-01T14:16:15.698Z,17.50
2022-11-01T14:21:29.197Z,17.50
2022-11-01T14:26:38.568Z,17.40
2022-11-01T14:31:37.100Z,17.30
2022-11-01T14:36:37.848Z,17.30
2022-11-01T14:41:40.865Z,17.20
2022-11-01T14:46:46.250Z,17.10
2022-11-01T14:51:46.849Z,16.90
2022-11-01T14:56:50.193Z,16.80
2022-11-01T15:01:50.426Z,16.70
2022-11-01T15:06:48.067Z,16.50
2022-11-01T15:11:46.437Z,16.30
2022-11-01T15:16:44.707Z,16.10
2022-11-01T15:21:47.115Z,15.90
2022-11-01T15:26:45.128Z,15.60
2022-11-01T15:31:58.211Z,15.50
2022-11-01T15:36:56.292Z,15.20
2022-11-01T15:41:55.451Z,15.10
2022-11-01T15:46:57.841Z,15.00
2022-11-01T15:52:03.029Z,14.90
2022-11-01T15:57:08.201Z,15.10
2022-11-01T16:02:11.732Z,15.00
2022-11-01T16:07:13.454Z,14.80
2022-11-01T16:12:22.899Z,14.60
2022-11-01T16:17:20.246Z,14.40
2022-11-01T16:22:36.003Z,14.30
2022-11-01T16:27:36.020Z,14.20
2022-11-01T16:32:34.119Z,14.10
2022-11-01T16:37:35.983Z,14.10
2022-11-01T16:42:33.780Z,14.10
2022-11-01T16:47:31.364Z,13.90
2022-11-01T16:52:28.827Z,13.90
2022-11-01T16:57:29.200Z,13.80
2022-11-01T17:02:30.031Z,13.70
2022-11-01T17:07:27.889Z,13.60
2022-11-01T17:12:25.315Z,13.50
2022-11-01T17:17:24.985Z,13.50
2022-11-01T17:22:37.114Z,13.50
2022-11-01T17:27:35.037Z,13.50
2022-11-01T17:32:32.274Z,13.40
2022-11-01T17:37:32.439Z,13.30
2022-11-01T17:42:29.668Z,13.20
2022-11-01T17:47:27.582Z,13.10
2022-11-01T17:52:24.892Z,13.10
2022-11-01T17:57:22.129Z,13.10
2022-11-01T18:02:19.608Z,13.00
2022-11-01T18:07:17.238Z,13.00
2022-11-01T18:12:28.468Z,13.00
2022-11-01T18:17:55.258Z,13.00
2022-11-01T18:23:05.502Z,12.90
2022-11-01T18:28:15.594Z,12.90
2022-11-01T18:33:33.058Z,12.90
2022-11-01T18:38:46.688Z,12.90
2022-11-01T18:43:43.948Z,12.90
2022-11-01T18:48:41.336Z,12.90
2022-11-01T18:53:38.648Z,12.80
2022-11-01T18:58:38.554Z,12.70
2022-11-01T19:03:35.888Z,12.70
2022-11-01T19:08:36.444Z,12.60
2022-11-01T19:13:34.952Z,12.60
2022-11-01T19:18:32.258Z,12.60
2022-11-01T19:24:21.397Z,12.50
2022-11-01T19:29:25.639Z,12.50
2022-11-01T19:34:30.248Z,12.50
2022-11-01T19:39:32.467Z,12.60
2022-11-01T19:44:31.158Z,12.60
2022-11-01T19:49:32.813Z,12.50
2022-11-01T19:54:35.619Z,12.50
2022-11-01T19:59:33.278Z,12.50
2022-11-01T20:04:32.787Z,12.50
2022-11-01T20:09:34.238Z,12.40
2022-11-01T20:14:33.589Z,12.30
2022-11-01T20:19:33.774Z,12.30
2022-11-01T20:24:31.333Z,12.30
2022-11-01T20:29:28.573Z,12.20
2022-11-01T20:34:27.404Z,12.30
2022-11-01T20:39:25.446Z,12.20
2022-11-01T20:44:22.834Z,12.20
2022-11-01T20:49:20.451Z,12.20
2022-11-01T20:54:18.301Z,12.10
2022-11-01T20:59:18.670Z,12.10
2022-11-01T21:04:19.599Z,12.20
2022-11-01T21:09:35.147Z,12.10
2022-11-01T21:14:38.218Z,12.10
2022-11-01T21:19:35.458Z,12.10
2022-11-01T21:24:34.015Z,12.10
2022-11-01T21:29:31.371Z,12.00
2022-11-01T21:34:31.273Z,12.10
2022-11-01T21:39:33.086Z,12.10
2022-11-01T21:44:45.632Z,12.10
2022-11-01T21:49:43.193Z,12.10
2022-11-01T21:54:42.954Z,12.10
2022-11-01T21:59:41.122Z,12.10
2022-11-01T22:04:39.335Z,12.00
2022-11-01T22:09:36.703Z,12.10
2022-11-01T22:14:34.795Z,12.00
2022-11-01T22:19:32.231Z,12.10
2022-11-01T22:24:29.833Z,12.10
2022-11-01T22:29:27.160Z,12.10
2022-11-01T22:34:24.392Z,12.10
2022-11-01T22:39:27.683Z,12.10
2022-11-01T22:44:31.869Z,12.10
2022-11-01T22:49:37.749Z,12.10
2022-11-01T22:54:47.895Z,12.10
2022-11-01T22:59:48.883Z,12.00
2022-11-01T23:04:46.333Z,12.00
2022-11-01T23:09:45.396Z,12.00
2022-11-01T23:14:48.475Z,12.10
2022-11-01T23:19:45.813Z,12.00
2022-11-01T23:24:43.233Z,12.00
2022-11-01T23:29:42.074Z,11.90
2022-11-01T23:34:40.478Z,11.90
2022-11-01T23:39:38.834Z,11.90
2022-11-01T23:44:39.458Z,12.00
2022-11-01T23:49:36.713Z,11.90
2022-11-01T23:54:42.257Z,12.00
2022-11-01T23:59:39.661Z,12.00
